Slocum, Texas
Current Conditions -  °F | °C
As of 4:35 PM on Tuesday 21 Oct 2014 (Local Time) from KPSN Reporting Station
Clear Clear  
Wind Chill: 80°   Ceiling: Unl
Heat Index: 80°   Visibility: 10mi
Dew Point: 60°   Wind: 5mph
Humidity: 51%   Direction: 40°NE
Pressure: 30.03"   Gusts: NA
Location:  31.6239°N, 95.528°W
Report Text: KPSN 212135Z AUTO 04004KT 10SM CLR 26/15 A3003 RMK AO2 T02640155
Loading
Personal Weather Stations






























Interactive Weather Map
Tropical Storm Tracking
New forecast layout! Learn more

10-Day Weather Forecast

Advertisements
Track Severe Weather on mobile